createdAt,value
2019-03-31T18:51:25.028Z,95249.38
2019-03-31T18:54:07.977Z,95226.92
2019-03-31T18:56:56.277Z,95203.06
2019-03-31T18:59:45.013Z,95275.83
2019-03-31T19:02:52.779Z,95201.76
2019-03-31T19:05:38.734Z,95127.23
2019-03-31T19:08:55.602Z,95072.19
2019-03-31T19:12:00.456Z,95057.98
2019-03-31T19:14:36.106Z,95062.91
2019-03-31T19:17:42.500Z,94978.34
2019-03-31T19:20:30.806Z,94914.91
2019-03-31T19:23:24.433Z,94879.52
2019-03-31T19:26:47.754Z,94821.66
2019-03-31T19:29:39.279Z,94783.55
2019-03-31T19:32:59.663Z,94749.09
2019-03-31T19:35:37.116Z,94726.95
2019-03-31T19:38:15.608Z,94726.95
2019-03-31T19:41:15.424Z,94697.55
2019-03-31T19:44:09.448Z,94651.21
2019-03-31T19:46:55.974Z,94651.21
2019-03-31T19:49:47.998Z,94609.76
2019-03-31T19:52:55.602Z,94604.42
2019-03-31T19:55:37.461Z,94648.30
2019-03-31T19:59:03.329Z,94643.68
2019-03-31T20:03:23.658Z,94647.60
2019-03-31T20:07:44.962Z,94644.98
2019-03-31T20:10:32.518Z,94675.72
2019-03-31T20:13:20.450Z,94675.72
2019-03-31T20:16:23.228Z,94647.60
2019-03-31T20:19:39.169Z,94657.78
2019-03-31T20:21:42.270Z,94518.91
2019-03-31T20:24:23.144Z,94540.02
2019-03-31T20:27:01.623Z,94540.02
2019-03-31T20:30:02.771Z,94498.48
2019-03-31T20:32:44.200Z,94423.96
2019-03-31T20:35:27.380Z,94335.41
2019-03-31T20:38:19.857Z,94327.08
2019-03-31T20:41:03.209Z,94312.20
2019-03-31T20:43:40.187Z,94299.24
2019-03-31T20:46:10.562Z,94290.30
2019-03-31T20:48:41.373Z,94241.98
2019-03-31T20:51:12.194Z,94197.11
2019-03-31T20:53:42.789Z,94215.58
2019-03-31T20:56:13.262Z,94210.66
2019-03-31T20:58:48.127Z,94154.66
2019-03-31T21:01:20.415Z,94174.43
2019-03-31T21:03:50.973Z,94141.52
2019-03-31T21:06:23.761Z,94128.24
2019-03-31T21:08:54.233Z,94106.07
2019-03-31T21:11:24.580Z,94110.59
2019-03-31T21:13:57.042Z,94086.61
2019-03-31T21:16:27.179Z,94108.28
2019-03-31T21:18:57.779Z,94122.53
2019-03-31T21:21:28.317Z,94050.25
2019-03-31T21:23:59.119Z,93926.72
2019-03-31T21:26:29.969Z,94087.22
2019-03-31T21:29:02.840Z,94095.84
2019-03-31T21:31:33.359Z,94086.22
2019-03-31T21:34:03.785Z,94039.48
2019-03-31T21:36:52.649Z,94015.80
2019-03-31T21:39:23.016Z,94083.81
2019-03-31T21:41:53.511Z,94074.59
2019-03-31T21:44:24.433Z,94046.11
2019-03-31T21:47:00.919Z,94047.70
2019-03-31T21:49:37.778Z,94021.64
2019-03-31T21:52:08.248Z,94033.27
2019-03-31T21:54:43.352Z,93989.61
2019-03-31T21:57:14.086Z,94007.88
2019-03-31T21:59:44.606Z,94009.78
2019-03-31T22:02:14.911Z,94042.30
2019-03-31T22:04:45.268Z,94060.34
2019-03-31T22:07:17.883Z,94076.19
2019-03-31T22:09:48.318Z,94002.06
2019-03-31T22:12:18.797Z,93989.73
2019-03-31T22:14:50.047Z,93999.76
2019-03-31T22:17:20.498Z,93962.56
2019-03-31T22:19:50.919Z,94051.92
2019-03-31T22:22:21.492Z,94039.59
2019-03-31T22:24:51.844Z,93999.45
2019-03-31T22:27:23.793Z,93982.91
2019-03-31T22:29:54.183Z,93943.63
2019-03-31T22:32:24.557Z,93930.20
2019-03-31T22:34:55.031Z,93905.42
2019-03-31T22:37:25.433Z,93922.78
2019-03-31T22:39:55.981Z,93925.19
2019-03-31T22:42:26.382Z,93908.96
2019-03-31T22:44:56.851Z,93923.69
2019-03-31T22:47:27.305Z,93902.63
2019-03-31T22:49:59.413Z,93894.10
2019-03-31T22:52:29.897Z,93887.80
2019-03-31T22:55:00.395Z,93852.84
2019-03-31T22:57:30.686Z,93851.53
2019-03-31T23:00:02.482Z,93881.48
2019-03-31T23:02:32.822Z,93833.41
2019-03-31T23:05:03.328Z,93911.87
2019-03-31T23:07:33.771Z,93885.29
2019-03-31T23:10:04.425Z,93872.87
2019-03-31T23:12:34.830Z,93868.36
2019-03-31T23:15:05.359Z,93844.13
2019-03-31T23:17:54.446Z,93804.67
2019-03-31T23:20:24.794Z,93790.42
2019-03-31T23:22:55.252Z,93832.61
2019-03-31T23:25:25.628Z,93813.88
2019-03-31T23:27:56.003Z,93833.41
2019-03-31T23:30:26.468Z,93818.39
2019-03-31T23:32:56.861Z,93809.17
2019-03-31T23:35:27.291Z,93830.80
2019-03-31T23:37:57.674Z,93781.91
2019-03-31T23:40:28.039Z,93841.82
2019-03-31T23:42:59.485Z,93849.23
2019-03-31T23:45:32.372Z,93835.81
2019-03-31T23:48:01.890Z,93867.96
2019-03-31T23:50:32.345Z,93870.27
2019-03-31T23:53:02.714Z,93838.22
2019-03-31T23:55:33.143Z,93775.01
2019-03-31T23:58:03.520Z,93786.02
